createdAt,value
2022-10-09T00:01:24.682Z,100.00
2022-10-09T00:03:52.195Z,100.00
2022-10-09T00:06:23.171Z,100.00
2022-10-09T00:08:50.253Z,100.00
2022-10-09T00:11:27.114Z,100.00
2022-10-09T00:13:54.776Z,100.00
2022-10-09T00:16:22.240Z,100.00
2022-10-09T00:18:49.209Z,100.00
2022-10-09T00:21:21.131Z,100.00
2022-10-09T00:23:47.982Z,100.00
2022-10-09T00:26:14.710Z,100.00
2022-10-09T00:28:41.553Z,100.00
2022-10-09T00:31:09.286Z,100.00
2022-10-09T00:33:36.311Z,100.00
2022-10-09T00:36:07.170Z,100.00
2022-10-09T00:38:34.097Z,100.00
2022-10-09T00:41:01.212Z,100.00
2022-10-09T00:43:57.275Z,100.00
2022-10-09T00:46:23.794Z,100.00
2022-10-09T00:48:54.108Z,100.00
2022-10-09T00:51:20.756Z,100.00
2022-10-09T00:53:47.455Z,100.00
2022-10-09T00:56:14.073Z,100.00
2022-10-09T00:58:40.623Z,100.00
2022-10-09T01:01:07.249Z,100.00
2022-10-09T01:03:33.934Z,100.00
2022-10-09T01:06:12.516Z,100.00
2022-10-09T01:08:51.028Z,100.00
2022-10-09T01:11:23.369Z,100.00
2022-10-09T01:13:49.844Z,100.00
2022-10-09T01:16:23.668Z,100.00
2022-10-09T01:19:09.131Z,100.00
2022-10-09T01:21:41.528Z,100.00
2022-10-09T01:24:11.161Z,100.00
2022-10-09T01:26:49.630Z,100.00
2022-10-09T01:29:18.927Z,100.00
2022-10-09T01:31:47.103Z,100.00
2022-10-09T01:34:14.881Z,100.00
2022-10-09T01:36:43.273Z,100.00
2022-10-09T01:39:12.249Z,100.00
2022-10-09T01:41:38.919Z,100.00
2022-10-09T01:44:15.315Z,100.00
2022-10-09T01:46:41.898Z,100.00
2022-10-09T01:49:11.286Z,100.00
2022-10-09T01:51:58.109Z,100.00
2022-10-09T01:54:47.695Z,100.00
2022-10-09T01:57:18.040Z,100.00
2022-10-09T01:59:46.592Z,100.00
2022-10-09T02:02:13.426Z,100.00
2022-10-09T02:04:42.238Z,100.00
2022-10-09T02:07:09.339Z,100.00
2022-10-09T02:09:37.361Z,100.00
2022-10-09T02:12:06.701Z,100.00
2022-10-09T02:14:34.440Z,100.00
2022-10-09T02:17:14.133Z,100.00
2022-10-09T02:19:46.077Z,100.00
2022-10-09T02:22:15.327Z,100.00
2022-10-09T02:24:42.398Z,100.00
2022-10-09T02:27:10.773Z,100.00
2022-10-09T02:29:41.452Z,100.00
2022-10-09T02:32:08.277Z,100.00
2022-10-09T02:34:34.908Z,100.00
2022-10-09T02:37:01.646Z,100.00
2022-10-09T02:39:28.222Z,100.00
2022-10-09T02:41:54.830Z,100.00
2022-10-09T02:44:21.496Z,100.00
2022-10-09T02:46:48.123Z,100.00
2022-10-09T02:49:14.736Z,100.00
2022-10-09T02:51:41.372Z,100.00
2022-10-09T02:54:08.023Z,100.00
2022-10-09T02:56:38.798Z,100.00
2022-10-09T02:59:06.145Z,100.00
2022-10-09T03:01:32.789Z,100.00
2022-10-09T03:03:59.460Z,100.00
2022-10-09T03:06:27.367Z,100.00
2022-10-09T03:08:54.414Z,100.00
2022-10-09T03:11:22.383Z,100.00
2022-10-09T03:13:49.352Z,100.00
2022-10-09T03:16:20.539Z,100.00
2022-10-09T03:18:48.164Z,100.00
2022-10-09T03:21:16.958Z,100.00
2022-10-09T03:23:43.699Z,100.00
2022-10-09T03:26:11.547Z,100.00
2022-10-09T03:28:39.229Z,100.00
2022-10-09T03:31:06.284Z,100.00
2022-10-09T03:33:33.190Z,100.00
2022-10-09T03:35:59.793Z,100.00
2022-10-09T03:38:26.402Z,100.00
2022-10-09T03:40:53.023Z,100.00
2022-10-09T03:43:19.990Z,100.00
2022-10-09T03:45:46.808Z,100.00
2022-10-09T03:48:13.511Z,100.00
2022-10-09T03:50:40.856Z,100.00
2022-10-09T03:53:08.424Z,100.00
2022-10-09T03:55:35.139Z,100.00
2022-10-09T03:58:02.121Z,100.00
2022-10-09T04:00:28.709Z,100.00
2022-10-09T04:02:55.520Z,100.00
2022-10-09T04:05:22.483Z,100.00
2022-10-09T04:07:49.193Z,100.00
2022-10-09T04:10:16.027Z,100.00
2022-10-09T04:12:42.653Z,100.00
2022-10-09T04:15:09.429Z,100.00
2022-10-09T04:17:36.091Z,100.00
2022-10-09T04:20:02.741Z,100.00
2022-10-09T04:22:29.368Z,100.00
2022-10-09T04:24:55.934Z,100.00
2022-10-09T04:27:22.580Z,100.00
2022-10-09T04:29:49.153Z,100.00
2022-10-09T04:32:15.728Z,100.00
2022-10-09T04:34:42.309Z,100.00
2022-10-09T04:37:08.877Z,100.00
2022-10-09T04:39:35.471Z,100.00
2022-10-09T04:42:02.055Z,100.00
2022-10-09T04:44:28.672Z,100.00
2022-10-09T04:46:55.223Z,100.00
2022-10-09T04:49:21.824Z,100.00
2022-10-09T04:51:48.420Z,100.00
2022-10-09T04:54:15.032Z,100.00
2022-10-09T04:56:41.587Z,100.00
2022-10-09T04:59:08.180Z,100.00
2022-10-09T05:01:38.239Z,100.00
2022-10-09T05:04:05.354Z,100.00
2022-10-09T05:06:32.011Z,100.00
2022-10-09T05:08:58.684Z,100.00
2022-10-09T05:11:25.726Z,100.00
2022-10-09T05:13:53.736Z,100.00
2022-10-09T05:16:21.703Z,100.00
2022-10-09T05:18:49.738Z,100.00
2022-10-09T05:21:16.718Z,100.00
2022-10-09T05:23:43.306Z,100.00
2022-10-09T05:26:14.198Z,100.00
2022-10-09T05:28:40.939Z,100.00
2022-10-09T05:31:08.125Z,100.00
2022-10-09T05:33:35.075Z,100.00
2022-10-09T05:36:02.932Z,100.00
2022-10-09T05:38:29.556Z,100.00
2022-10-09T05:40:56.248Z,100.00
2022-10-09T05:43:24.152Z,100.00
2022-10-09T05:45:51.244Z,100.00
2022-10-09T05:48:17.997Z,100.00
2022-10-09T05:50:44.641Z,100.00
2022-10-09T05:53:11.796Z,100.00
2022-10-09T05:55:38.307Z,100.00
2022-10-09T05:58:05.049Z,100.00
2022-10-09T06:00:31.662Z,100.00
2022-10-09T06:02:58.333Z,100.00
2022-10-09T06:05:25.855Z,100.00
2022-10-09T06:07:52.511Z,100.00
2022-10-09T06:10:19.057Z,100.00
2022-10-09T06:12:45.697Z,100.00
2022-10-09T06:15:12.319Z,100.00
2022-10-09T06:17:38.972Z,100.00
2022-10-09T06:20:05.777Z,100.00
2022-10-09T06:22:32.371Z,100.00
2022-10-09T06:24:58.942Z,100.00
2022-10-09T06:27:25.500Z,100.00
2022-10-09T06:29:53.357Z,100.00
2022-10-09T06:32:19.954Z,100.00
2022-10-09T06:34:46.497Z,100.00
2022-10-09T06:37:13.127Z,100.00
2022-10-09T06:39:39.695Z,100.00
2022-10-09T06:42:06.274Z,100.00
2022-10-09T06:44:49.909Z,100.00
2022-10-09T06:47:16.482Z,100.00
2022-10-09T06:49:43.084Z,100.00
2022-10-09T06:52:09.616Z,100.00
2022-10-09T06:54:36.208Z,100.00
2022-10-09T06:57:04.712Z,100.00
2022-10-09T06:59:31.295Z,100.00
2022-10-09T07:01:58.207Z,100.00
2022-10-09T07:04:24.935Z,100.00
2022-10-09T07:06:51.576Z,100.00
2022-10-09T07:09:18.453Z,100.00
2022-10-09T07:11:46.116Z,100.00
2022-10-09T07:14:13.882Z,100.00
2022-10-09T07:16:41.680Z,100.00
2022-10-09T07:19:11.147Z,100.00
2022-10-09T07:21:39.374Z,100.00
2022-10-09T07:24:06.615Z,100.00
2022-10-09T07:26:34.795Z,100.00
2022-10-09T07:29:01.497Z,100.00
2022-10-09T07:31:28.310Z,100.00
2022-10-09T07:33:56.578Z,100.00
2022-10-09T07:36:23.536Z,100.00
2022-10-09T07:38:51.638Z,100.00
2022-10-09T07:41:18.626Z,100.00
2022-10-09T07:43:45.802Z,100.00
2022-10-09T07:46:17.287Z,100.00
2022-10-09T07:48:44.315Z,100.00
2022-10-09T07:51:16.279Z,100.00
2022-10-09T07:53:42.952Z,100.00
2022-10-09T07:56:19.666Z,100.00
2022-10-09T07:58:53.596Z,100.00
2022-10-09T08:01:20.826Z,100.00
2022-10-09T08:03:48.011Z,100.00
2022-10-09T08:06:15.012Z,100.00
2022-10-09T08:08:41.700Z,100.00
2022-10-09T08:11:09.920Z,100.00
2022-10-09T08:13:36.528Z,100.00
2022-10-09T08:16:03.568Z,100.00
2022-10-09T08:18:30.263Z,100.00
2022-10-09T08:21:00.693Z,100.00
2022-10-09T08:23:27.698Z,100.00
2022-10-09T08:25:54.738Z,100.00
2022-10-09T08:28:21.491Z,100.00
2022-10-09T08:30:48.243Z,100.00
2022-10-09T08:33:15.059Z,100.00
2022-10-09T08:35:41.707Z,100.00
2022-10-09T08:38:08.298Z,100.00
2022-10-09T08:40:45.259Z,100.00
2022-10-09T08:43:15.680Z,100.00
2022-10-09T08:45:43.729Z,100.00
2022-10-09T08:48:18.504Z,100.00
2022-10-09T08:50:48.616Z,100.00
2022-10-09T08:53:33.812Z,100.00
2022-10-09T08:56:01.910Z,100.00
2022-10-09T08:58:34.514Z,100.00
2022-10-09T09:01:01.630Z,100.00
2022-10-09T09:03:43.545Z,100.00
2022-10-09T09:06:18.849Z,100.00
2022-10-09T09:08:45.550Z,100.00
2022-10-09T09:11:21.958Z,100.00
2022-10-09T09:13:48.607Z,100.00
2022-10-09T09:16:18.283Z,100.00
2022-10-09T09:19:00.998Z,100.00
2022-10-09T09:21:36.900Z,94.17
2022-10-09T09:24:05.376Z,91.04
2022-10-09T09:26:31.989Z,88.29
2022-10-09T09:29:01.945Z,89.26
2022-10-09T09:31:31.426Z,89.71
2022-10-09T09:34:01.867Z,90.44
2022-10-09T09:36:31.510Z,88.28
2022-10-09T09:41:45.621Z,85.99
2022-10-09T09:44:13.409Z,81.95
2022-10-09T09:46:40.351Z,81.54
2022-10-09T09:49:17.304Z,81.58
2022-10-09T09:51:44.178Z,80.69
2022-10-09T09:54:20.272Z,80.51
2022-10-09T09:59:39.187Z,81.62
2022-10-09T10:02:05.804Z,80.58
2022-10-09T10:04:32.679Z,79.10
2022-10-09T10:06:59.360Z,76.76
2022-10-09T10:09:27.115Z,76.26
2022-10-09T10:11:56.923Z,78.93
2022-10-09T10:14:23.732Z,77.81
2022-10-09T10:16:51.401Z,77.83
2022-10-09T10:19:20.490Z,74.97
2022-10-09T10:21:48.717Z,74.43
2022-10-09T10:24:20.263Z,73.52
2022-10-09T10:26:50.180Z,71.89
2022-10-09T10:29:18.762Z,73.60
2022-10-09T10:31:48.540Z,73.29
2022-10-09T10:34:22.047Z,72.02
2022-10-09T10:36:52.261Z,70.32
2022-10-09T10:39:26.927Z,69.93
2022-10-09T10:41:57.393Z,67.85
2022-10-09T10:44:37.572Z,63.85
2022-10-09T10:47:06.640Z,62.13
2022-10-09T10:49:34.092Z,59.14
2022-10-09T10:52:04.095Z,57.02
2022-10-09T10:54:37.699Z,56.78
2022-10-09T10:57:09.203Z,55.75
2022-10-09T10:59:36.189Z,55.82
2022-10-09T11:02:21.449Z,53.48
2022-10-09T11:05:06.249Z,53.68
2022-10-09T11:07:38.603Z,53.29
2022-10-09T11:10:28.090Z,53.09
2022-10-09T11:12:54.703Z,49.27
2022-10-09T11:15:24.109Z,51.04
2022-10-09T11:17:50.748Z,50.67
2022-10-09T11:20:17.299Z,49.99
2022-10-09T11:23:02.465Z,50.73
2022-10-09T11:25:31.011Z,50.80
2022-10-09T11:28:07.471Z,50.44
2022-10-09T11:30:39.625Z,49.70
2022-10-09T11:33:16.914Z,48.80
2022-10-09T11:36:12.798Z,48.40
2022-10-09T11:38:42.464Z,48.00
2022-10-09T11:41:09.318Z,47.34
2022-10-09T11:43:43.181Z,46.71
2022-10-09T11:46:20.441Z,47.73
2022-10-09T11:48:59.534Z,48.45
2022-10-09T11:51:44.787Z,46.17
2022-10-09T11:54:15.840Z,44.96
2022-10-09T11:56:52.673Z,44.72
2022-10-09T11:59:25.787Z,44.79
2022-10-09T12:01:52.700Z,46.17
2022-10-09T12:04:43.596Z,44.29
2022-10-09T12:07:13.187Z,43.93
2022-10-09T12:09:39.797Z,42.76
2022-10-09T12:12:10.308Z,43.90
2022-10-09T12:14:37.647Z,44.68
2022-10-09T12:17:15.583Z,45.43
2022-10-09T12:19:42.696Z,44.79
2022-10-09T12:22:21.768Z,45.78
2022-10-09T12:24:50.508Z,44.32
2022-10-09T12:27:28.232Z,42.83
2022-10-09T12:29:56.483Z,43.66
2022-10-09T12:32:29.079Z,43.56
2022-10-09T12:34:56.525Z,43.13
2022-10-09T12:37:31.523Z,42.93
2022-10-09T12:40:06.549Z,41.54
2022-10-09T12:42:33.226Z,39.86
2022-10-09T12:44:59.874Z,39.44
2022-10-09T12:47:28.061Z,39.98
2022-10-09T12:49:58.696Z,40.83
2022-10-09T12:52:25.541Z,41.08
2022-10-09T12:54:52.217Z,39.52
2022-10-09T12:57:21.769Z,40.11
2022-10-09T12:59:50.962Z,40.66
2022-10-09T13:02:18.409Z,41.06
2022-10-09T13:04:55.532Z,41.40
2022-10-09T13:07:25.010Z,40.91
2022-10-09T13:09:57.700Z,40.80
2022-10-09T13:12:25.824Z,39.94
2022-10-09T13:15:06.266Z,39.16
2022-10-09T13:17:37.516Z,39.20
2022-10-09T13:20:22.987Z,38.52
2022-10-09T13:23:08.449Z,38.42
2022-10-09T13:25:37.297Z,39.07
2022-10-09T13:28:04.066Z,39.07
2022-10-09T13:30:30.896Z,38.25
2022-10-09T13:32:57.768Z,38.14
2022-10-09T13:35:24.706Z,38.51
2022-10-09T13:37:51.761Z,39.21
2022-10-09T13:40:20.812Z,37.63
2022-10-09T13:42:54.767Z,38.96
2022-10-09T13:45:21.994Z,38.56
2022-10-09T13:47:48.762Z,38.65
2022-10-09T13:50:16.111Z,37.96
2022-10-09T13:52:42.762Z,36.46
2022-10-09T13:55:09.569Z,36.58
2022-10-09T13:57:36.092Z,38.00
2022-10-09T14:00:03.087Z,36.27
2022-10-09T14:02:38.668Z,37.49
2022-10-09T14:05:05.517Z,35.62
2022-10-09T14:07:32.091Z,34.57
2022-10-09T14:09:58.673Z,35.91
2022-10-09T14:12:25.283Z,35.02
2022-10-09T14:14:53.326Z,35.85
2022-10-09T14:17:19.929Z,34.80
2022-10-09T14:19:46.478Z,34.53
2022-10-09T14:22:15.933Z,35.06
2022-10-09T14:24:42.690Z,35.96
2022-10-09T14:27:09.356Z,36.50
2022-10-09T14:29:37.517Z,35.83
2022-10-09T14:32:04.796Z,35.85
2022-10-09T14:34:31.354Z,36.97
2022-10-09T14:36:57.907Z,36.10
2022-10-09T14:39:24.495Z,34.59
2022-10-09T14:41:51.135Z,34.83
2022-10-09T14:44:17.807Z,35.39
2022-10-09T14:46:44.396Z,37.06
2022-10-09T14:49:11.081Z,36.89
2022-10-09T14:51:39.650Z,38.28
2022-10-09T14:54:07.436Z,38.81
2022-10-09T14:56:34.174Z,39.63
2022-10-09T14:59:01.137Z,37.86
2022-10-09T15:01:29.521Z,39.27
2022-10-09T15:03:56.453Z,39.66
2022-10-09T15:06:27.638Z,40.68
2022-10-09T15:08:56.113Z,38.09
2022-10-09T15:11:23.217Z,38.36
2022-10-09T15:13:49.844Z,39.52
2022-10-09T15:16:17.375Z,39.07
2022-10-09T15:18:44.541Z,39.42
2022-10-09T15:21:15.601Z,38.40
2022-10-09T15:23:42.353Z,37.63
2022-10-09T15:26:09.679Z,38.28
2022-10-09T15:28:36.837Z,40.17
2022-10-09T15:31:04.122Z,41.75
2022-10-09T15:33:30.922Z,44.16
2022-10-09T15:35:57.524Z,47.06
2022-10-09T15:38:24.790Z,47.87
2022-10-09T15:40:52.476Z,49.98
2022-10-09T15:43:20.272Z,52.96
2022-10-09T15:45:47.016Z,53.63
2022-10-09T15:48:31.620Z,57.11
2022-10-09T15:51:03.292Z,56.39
2022-10-09T15:53:29.878Z,57.07
2022-10-09T15:55:57.180Z,60.73
2022-10-09T15:58:23.742Z,59.75
2022-10-09T16:00:50.430Z,59.87
2022-10-09T16:03:17.697Z,62.04
2022-10-09T16:05:47.664Z,63.89
2022-10-09T16:08:14.599Z,65.87
2022-10-09T16:10:49.222Z,66.24
2022-10-09T16:13:15.994Z,68.00
2022-10-09T16:15:43.200Z,71.15
2022-10-09T16:18:10.546Z,67.61
2022-10-09T16:20:37.727Z,69.04
2022-10-09T16:23:04.770Z,70.63
2022-10-09T16:25:31.389Z,72.13
2022-10-09T16:27:58.031Z,72.62
2022-10-09T16:30:24.684Z,73.31
2022-10-09T16:32:51.846Z,75.05
2022-10-09T16:35:18.807Z,75.90
2022-10-09T16:37:45.403Z,78.07
2022-10-09T16:40:12.051Z,77.53
2022-10-09T16:42:38.654Z,79.47
2022-10-09T16:45:05.571Z,79.90
2022-10-09T16:47:33.980Z,81.73
2022-10-09T16:50:00.599Z,83.73
2022-10-09T16:52:27.282Z,83.97
2022-10-09T16:54:57.038Z,84.66
2022-10-09T16:57:26.175Z,86.27
2022-10-09T16:59:52.984Z,84.62
2022-10-09T17:02:19.651Z,86.05
2022-10-09T17:04:46.338Z,87.65
2022-10-09T17:07:12.978Z,87.19
2022-10-09T17:09:40.522Z,87.33
2022-10-09T17:12:13.009Z,88.58
2022-10-09T17:14:40.416Z,91.69
2022-10-09T17:17:08.154Z,93.58
2022-10-09T17:19:34.774Z,93.87
2022-10-09T17:22:01.363Z,91.87
2022-10-09T17:24:28.479Z,92.99
2022-10-09T17:26:55.226Z,93.00
2022-10-09T17:29:22.371Z,94.67
2022-10-09T17:31:49.397Z,95.80
2022-10-09T17:34:16.072Z,96.19
2022-10-09T17:36:44.100Z,97.26
2022-10-09T17:39:12.254Z,98.39
2022-10-09T17:41:39.941Z,100.00
2022-10-09T17:44:06.770Z,100.00
2022-10-09T17:46:33.329Z,100.00
2022-10-09T17:49:00.104Z,100.00
2022-10-09T17:51:26.837Z,100.00
2022-10-09T17:53:54.277Z,100.00
2022-10-09T17:56:20.912Z,100.00
2022-10-09T17:58:48.760Z,100.00
2022-10-09T18:01:16.136Z,100.00
2022-10-09T18:03:43.529Z,100.00
2022-10-09T18:06:12.172Z,100.00
2022-10-09T18:08:39.880Z,100.00
2022-10-09T18:11:08.131Z,100.00
2022-10-09T18:13:35.311Z,100.00
2022-10-09T18:16:05.028Z,100.00
2022-10-09T18:18:31.992Z,100.00
2022-10-09T18:21:02.725Z,100.00
2022-10-09T18:23:30.253Z,100.00
2022-10-09T18:25:56.878Z,100.00
2022-10-09T18:28:23.710Z,100.00
2022-10-09T18:30:50.476Z,100.00
2022-10-09T18:33:17.049Z,100.00
2022-10-09T18:35:43.665Z,100.00
2022-10-09T18:38:10.708Z,100.00
2022-10-09T18:40:45.561Z,100.00
2022-10-09T18:43:12.599Z,100.00
2022-10-09T18:45:43.379Z,100.00
2022-10-09T18:48:10.071Z,100.00
2022-10-09T18:50:37.635Z,100.00
2022-10-09T18:53:04.590Z,100.00
2022-10-09T18:55:31.487Z,100.00
2022-10-09T18:57:59.594Z,100.00
2022-10-09T19:00:26.697Z,100.00
2022-10-09T19:02:53.377Z,100.00
2022-10-09T19:05:20.163Z,100.00
2022-10-09T19:07:46.874Z,100.00
2022-10-09T19:10:13.635Z,100.00
2022-10-09T19:12:42.636Z,100.00
2022-10-09T19:15:12.249Z,100.00
2022-10-09T19:17:39.309Z,100.00
2022-10-09T19:20:06.244Z,100.00
2022-10-09T19:22:33.002Z,100.00
2022-10-09T19:24:59.697Z,100.00
2022-10-09T19:27:27.299Z,100.00
2022-10-09T19:29:54.179Z,100.00
2022-10-09T19:32:23.820Z,100.00
2022-10-09T19:34:51.143Z,100.00
2022-10-09T19:37:18.370Z,100.00
2022-10-09T19:39:48.540Z,100.00
2022-10-09T19:42:15.651Z,100.00
2022-10-09T19:44:43.376Z,100.00
2022-10-09T19:47:10.651Z,100.00
2022-10-09T19:49:37.364Z,100.00
2022-10-09T19:52:04.281Z,100.00
2022-10-09T19:54:31.959Z,100.00
2022-10-09T19:56:58.647Z,100.00
2022-10-09T19:59:25.350Z,100.00
2022-10-09T20:01:56.650Z,100.00
2022-10-09T20:04:24.180Z,100.00
2022-10-09T20:06:51.788Z,100.00
2022-10-09T20:09:18.984Z,100.00
2022-10-09T20:11:46.255Z,100.00
2022-10-09T20:14:12.951Z,100.00
2022-10-09T20:16:39.710Z,100.00
2022-10-09T20:19:07.091Z,100.00
2022-10-09T20:21:37.022Z,100.00
2022-10-09T20:24:06.148Z,100.00
2022-10-09T20:26:33.278Z,100.00
2022-10-09T20:29:00.214Z,100.00
2022-10-09T20:31:27.184Z,100.00
2022-10-09T20:33:54.677Z,100.00
2022-10-09T20:36:23.410Z,100.00
2022-10-09T20:38:50.631Z,100.00
2022-10-09T20:41:17.369Z,100.00
2022-10-09T20:43:43.967Z,100.00
2022-10-09T20:46:12.423Z,100.00
2022-10-09T20:48:39.605Z,100.00
2022-10-09T20:51:06.385Z,100.00
2022-10-09T20:53:33.463Z,100.00
2022-10-09T20:56:01.169Z,100.00
2022-10-09T20:58:28.007Z,100.00
2022-10-09T21:00:54.795Z,100.00
2022-10-09T21:03:21.760Z,100.00
2022-10-09T21:05:48.755Z,100.00
2022-10-09T21:08:15.344Z,100.00
2022-10-09T21:10:45.429Z,100.00
2022-10-09T21:13:12.382Z,100.00
2022-10-09T21:15:43.632Z,100.00
2022-10-09T21:18:10.712Z,100.00
2022-10-09T21:20:38.397Z,100.00
2022-10-09T21:23:05.107Z,100.00
2022-10-09T21:25:31.750Z,100.00
2022-10-09T21:27:58.391Z,100.00
2022-10-09T21:30:25.021Z,100.00
2022-10-09T21:32:51.875Z,100.00
2022-10-09T21:35:18.733Z,100.00
2022-10-09T21:37:45.317Z,100.00
2022-10-09T21:40:11.863Z,100.00
2022-10-09T21:42:38.630Z,100.00
2022-10-09T21:45:05.386Z,100.00
2022-10-09T21:47:31.928Z,100.00
2022-10-09T21:49:58.494Z,100.00
2022-10-09T21:52:25.136Z,100.00
2022-10-09T21:54:51.944Z,100.00
2022-10-09T21:57:18.532Z,100.00
2022-10-09T21:59:45.067Z,100.00
2022-10-09T22:02:11.637Z,100.00
2022-10-09T22:04:38.228Z,100.00
2022-10-09T22:07:04.867Z,100.00
2022-10-09T22:09:31.454Z,100.00
2022-10-09T22:11:58.042Z,100.00
2022-10-09T22:14:24.671Z,100.00
2022-10-09T22:16:51.287Z,100.00
2022-10-09T22:19:18.934Z,100.00
2022-10-09T22:21:45.567Z,100.00
2022-10-09T22:24:12.217Z,100.00
2022-10-09T22:26:38.791Z,100.00
2022-10-09T22:29:05.404Z,100.00
2022-10-09T22:31:31.991Z,100.00
2022-10-09T22:34:00.138Z,100.00
2022-10-09T22:36:28.085Z,100.00
2022-10-09T22:38:55.636Z,100.00
2022-10-09T22:41:23.085Z,100.00
2022-10-09T22:43:51.054Z,100.00
2022-10-09T22:46:19.858Z,100.00
2022-10-09T22:48:46.421Z,100.00
2022-10-09T22:51:14.150Z,100.00
2022-10-09T22:53:41.855Z,100.00
2022-10-09T22:56:09.794Z,100.00
2022-10-09T22:58:36.347Z,100.00
2022-10-09T23:01:04.453Z,100.00
2022-10-09T23:03:31.081Z,100.00
2022-10-09T23:06:04.934Z,100.00
2022-10-09T23:08:31.543Z,100.00
2022-10-09T23:10:58.083Z,100.00
2022-10-09T23:13:24.690Z,100.00
2022-10-09T23:15:51.262Z,100.00
2022-10-09T23:18:17.876Z,100.00
2022-10-09T23:20:44.501Z,100.00
2022-10-09T23:23:11.064Z,100.00
2022-10-09T23:25:40.800Z,100.00
2022-10-09T23:28:07.447Z,100.00
2022-10-09T23:30:34.132Z,100.00
2022-10-09T23:33:00.708Z,100.00
2022-10-09T23:35:27.286Z,100.00
2022-10-09T23:37:53.909Z,100.00
2022-10-09T23:40:20.891Z,100.00
2022-10-09T23:42:47.583Z,100.00
2022-10-09T23:45:14.534Z,100.00
2022-10-09T23:47:41.120Z,100.00
2022-10-09T23:50:07.843Z,100.00
2022-10-09T23:52:34.419Z,100.00
2022-10-09T23:55:01.016Z,100.00
2022-10-09T23:57:27.688Z,100.00
2022-10-09T23:59:54.297Z,100.00
